Time;durP1;ratioP1;P1;durP2;ratioP2;P2;SDS_P1;SDS_P2;PMS_P1;PMS_P2;Temp;Humidity;BMP_temperature;BMP_pressure;BME280_temperature;BME280_humidity;BME280_pressure;Samples;Min_cycle;Max_cycle;Signal;HPM_P1;HPM_P2
2021/06/27 00:02:45;;;;;;;10.85;2.42;;;;;;;0.01;0.00;59042.03;10320253;28;20075;-61
2021/06/27 00:07:44;;;;;;;3.55;1.67;;;;;;;0.01;0.00;59042.03;10320010;28;20052;-61
2021/06/27 00:12:44;;;;;;;8.05;1.58;;;;;;;0.01;0.00;59042.03;10320354;28;20040;-61
2021/06/27 00:17:44;;;;;;;6.97;2.35;;;;;;;0.01;0.00;59042.03;10319286;28;20079;-61
2021/06/27 00:22:44;;;;;;;12.25;2.53;;;;;;;0.01;0.00;59042.03;10320287;28;20455;-61
2021/06/27 00:27:45;;;;;;;9.55;2.20;;;;;;;0.01;0.00;59042.03;10319660;28;20055;-61
2021/06/27 00:32:45;;;;;;;3.75;1.50;;;;;;;0.01;0.00;59042.03;10319905;28;20048;-61
2021/06/27 00:37:45;;;;;;;6.50;1.70;;;;;;;0.01;0.00;59042.03;10318416;28;20080;-61
2021/06/27 00:42:44;;;;;;;9.30;2.10;;;;;;;0.01;0.00;59042.03;10318724;28;20044;-61
2021/06/27 00:47:44;;;;;;;6.47;1.88;;;;;;;0.01;0.00;59042.03;10318471;28;20060;-61
2021/06/27 00:52:45;;;;;;;4.70;1.65;;;;;;;0.01;0.00;59042.03;10318532;28;20040;-61
2021/06/27 00:57:44;;;;;;;6.88;2.15;;;;;;;0.01;0.00;59042.03;10319001;28;20079;-61
2021/06/27 01:02:44;;;;;;;6.93;2.65;;;;;;;0.01;0.00;59042.03;10317933;28;20079;-61
2021/06/27 01:07:45;;;;;;;8.38;2.63;;;;;;;0.01;0.00;59042.03;10317909;28;20056;-61
2021/06/27 01:12:45;;;;;;;12.20;2.47;;;;;;;0.01;0.00;59042.03;10317205;28;20505;-61
2021/06/27 01:17:46;;;;;;;4.65;1.92;;;;;;;0.01;0.00;59042.03;10317796;28;20080;-61
2021/06/27 01:22:47;;;;;;;8.50;3.10;;;;;;;0.01;0.00;59042.03;10317073;28;20055;-61
2021/06/27 01:27:46;;;;;;;5.30;1.98;;;;;;;0.01;0.00;59042.03;10298829;28;20076;-61
2021/06/27 01:32:47;;;;;;;10.05;2.22;;;;;;;0.01;0.00;59042.03;10317519;28;20529;-61
2021/06/27 01:37:51;;;;;;;6.60;2.42;;;;;;;0.01;0.00;59042.03;10317037;28;20080;-61
2021/06/27 01:42:52;;;;;;;4.18;1.90;;;;;;;0.01;0.00;59042.03;10316265;28;20521;-61
2021/06/27 01:47:56;;;;;;;6.00;2.00;;;;;;;0.01;0.00;59042.03;10317291;28;20056;-61
2021/06/27 01:52:58;;;;;;;5.68;2.20;;;;;;;0.01;0.00;59042.03;10316649;28;20041;-61
2021/06/27 01:57:58;;;;;;;9.70;2.33;;;;;;;0.01;0.00;59042.03;10316408;28;20533;-61
2021/06/27 02:02:57;;;;;;;14.93;3.20;;;;;;;0.01;0.00;59042.03;10315871;28;20049;-61
2021/06/27 02:07:58;;;;;;;7.38;2.22;;;;;;;0.01;0.00;59042.03;10316315;28;20047;-60
2021/06/27 02:12:59;;;;;;;6.40;2.80;;;;;;;0.01;0.00;59042.03;10315614;28;20048;-61
2021/06/27 02:18:15;;;;;;;11.18;2.97;;;;;;;0.01;0.00;59042.03;10315300;28;20092;-61
2021/06/27 02:23:15;;;;;;;24.30;3.33;;;;;;;0.01;0.00;59042.03;10315256;28;20041;-61
2021/06/27 02:28:14;;;;;;;14.57;4.13;;;;;;;0.01;0.00;59042.03;10315704;28;20051;-58
2021/06/27 02:33:13;;;;;;;24.38;3.88;;;;;;;0.01;0.00;59042.03;10314766;28;20055;-58
2021/06/27 02:38:12;;;;;;;18.95;4.47;;;;;;;0.01;0.00;59042.03;10315818;28;20076;-58
2021/06/27 02:43:14;;;;;;;11.90;4.47;;;;;;;0.01;0.00;59042.03;10315386;28;20076;-58
2021/06/27 02:48:13;;;;;;;23.00;4.85;;;;;;;0.01;0.00;59042.03;10315568;28;20072;-58
2021/06/27 02:53:12;;;;;;;15.93;4.80;;;;;;;0.01;0.00;59042.03;10315349;28;20037;-59
2021/06/27 02:58:12;;;;;;;15.88;6.10;;;;;;;0.01;0.00;59042.03;10314098;28;20080;-59
2021/06/27 03:03:11;;;;;;;21.33;5.30;;;;;;;0.01;0.00;59042.03;10314406;28;20509;-58
2021/06/27 03:08:10;;;;;;;16.15;4.57;;;;;;;0.01;0.00;59042.03;10314985;28;20045;-58
2021/06/27 03:13:09;;;;;;;21.35;5.63;;;;;;;0.01;0.00;59042.03;10315570;28;20040;-59
2021/06/27 03:18:09;;;;;;;16.20;3.55;;;;;;;0.01;0.00;59042.03;10315141;28;20072;-58
2021/06/27 03:23:09;;;;;;;16.38;4.18;;;;;;;0.01;0.00;59042.03;10313688;28;20052;-59
2021/06/27 03:28:08;;;;;;;11.48;4.10;;;;;;;0.01;0.00;59042.03;10314013;28;20103;-57
2021/06/27 03:33:07;;;;;;;11.48;3.90;;;;;;;0.01;0.00;59042.03;10313688;28;20478;-58
2021/06/27 03:38:11;;;;;;;12.70;3.70;;;;;;;0.01;0.00;59042.03;10320038;28;20531;-58
2021/06/27 03:43:10;;;;;;;14.75;4.38;;;;;;;0.01;0.00;59042.03;10321093;28;20048;-59
2021/06/27 03:48:09;;;;;;;15.30;4.78;;;;;;;0.01;0.00;59042.03;10321123;28;20486;-59
2021/06/27 03:53:09;;;;;;;20.67;4.65;;;;;;;0.01;0.00;59042.03;10320491;28;20049;-58
2021/06/27 03:58:08;;;;;;;20.20;4.97;;;;;;;0.01;0.00;59042.03;10321535;28;20079;-59
2021/06/27 04:03:06;;;;;;;20.67;5.07;;;;;;;0.01;0.00;59042.03;10319901;28;20051;-58
2021/06/27 04:08:05;;;;;;;23.10;4.50;;;;;;;0.01;0.00;59042.03;10320813;28;20507;-58
2021/06/27 04:13:05;;;;;;;17.05;4.85;;;;;;;0.01;0.00;59042.03;10320329;28;20083;-58
2021/06/27 04:18:04;;;;;;;16.95;4.38;;;;;;;0.01;0.00;59042.03;10302400;28;20140;-59
2021/06/27 04:23:03;;;;;;;14.75;4.25;;;;;;;0.01;0.00;59042.03;10320245;28;20072;-59
2021/06/27 04:28:02;;;;;;;12.27;3.90;;;;;;;0.01;0.00;59042.03;10319133;28;20142;-59
2021/06/27 04:33:02;;;;;;;7.90;3.00;;;;;;;0.01;0.00;59042.03;10319712;28;20048;-60
2021/06/27 04:38:02;;;;;;;14.05;3.42;;;;;;;0.01;0.00;59042.03;10319322;28;20097;-58
2021/06/27 04:43:00;;;;;;;7.30;3.40;;;;;;;0.01;0.00;59042.03;10301231;28;20048;-58
2021/06/27 04:48:01;;;;;;;9.65;3.75;;;;;;;0.01;0.00;59042.03;10319099;28;20040;-58
2021/06/27 04:53:00;;;;;;;10.95;3.60;;;;;;;0.01;0.00;59042.03;10319479;28;20052;-58
2021/06/27 04:57:59;;;;;;;11.77;3.55;;;;;;;0.01;0.00;59042.03;10318238;28;20083;-58
2021/06/27 05:02:57;;;;;;;19.83;3.30;;;;;;;0.01;0.00;59042.03;10317944;28;20052;-59
2021/06/27 05:07:58;;;;;;;16.13;5.97;;;;;;;0.01;0.00;59042.03;10318522;28;20421;-59
2021/06/27 05:12:56;;;;;;;11.25;4.15;;;;;;;0.01;0.00;59042.03;10299843;28;20041;-59
2021/06/27 05:17:55;;;;;;;14.30;3.60;;;;;;;0.01;0.00;59042.03;10299635;28;20111;-59
2021/06/27 05:22:54;;;;;;;12.40;6.07;;;;;;;0.01;0.00;59042.03;10317144;28;20056;-59
2021/06/27 05:27:54;;;;;;;13.38;3.75;;;;;;;0.01;0.00;59042.03;10317105;28;20044;-58
2021/06/27 05:32:53;;;;;;;12.45;4.28;;;;;;;0.01;0.00;59042.03;10317814;28;20045;-58
2021/06/27 05:37:52;;;;;;;10.93;3.42;;;;;;;0.01;0.00;59042.03;10316567;28;20083;-59
2021/06/27 05:42:50;;;;;;;11.50;4.88;;;;;;;0.01;0.00;59042.03;10316738;28;20052;-59
2021/06/27 05:47:50;;;;;;;6.72;3.63;;;;;;;0.01;0.00;59042.03;10316687;28;20041;-58
2021/06/27 05:52:49;;;;;;;21.65;5.03;;;;;;;0.01;0.00;59042.03;10317148;28;20040;-58
2021/06/27 05:57:48;;;;;;;13.10;4.38;;;;;;;0.01;0.00;59042.03;10315240;28;20079;-58
2021/06/27 06:02:47;;;;;;;6.90;4.22;;;;;;;0.01;0.00;59042.03;10315267;28;20052;-59
2021/06/27 06:07:47;;;;;;;7.45;3.50;;;;;;;0.01;0.00;59042.03;10315464;28;20520;-58
2021/06/27 06:12:46;;;;;;;14.73;4.45;;;;;;;0.01;0.00;59042.03;10315104;28;20037;-59
2021/06/27 06:17:45;;;;;;;13.80;4.32;;;;;;;0.01;0.00;59042.03;10316135;28;20099;-58
2021/06/27 06:22:44;;;;;;;13.25;4.03;;;;;;;0.01;0.00;59042.03;10308361;28;20079;-58
2021/06/27 06:27:44;;;;;;;12.38;3.75;;;;;;;0.01;0.00;59042.03;10307903;28;20072;-56
2021/06/27 06:32:42;;;;;;;13.60;3.40;;;;;;;0.01;0.00;59042.03;10313224;28;20107;-59
2021/06/27 06:37:41;;;;;;;9.73;3.92;;;;;;;0.01;0.00;59042.03;10309473;28;20072;-59
2021/06/27 06:42:40;;;;;;;8.52;3.63;;;;;;;0.01;0.00;59042.03;10311597;28;20081;-57
2021/06/27 06:47:40;;;;;;;11.05;4.28;;;;;;;0.01;0.00;59042.03;10293218;28;20099;-57
2021/06/27 06:52:39;;;;;;;12.25;4.10;;;;;;;0.01;0.00;59042.03;10314167;28;20052;-58
2021/06/27 06:57:37;;;;;;;12.80;4.28;;;;;;;0.01;0.00;59042.03;10314783;28;20052;-57
2021/06/27 07:02:38;;;;;;;14.10;4.07;;;;;;;0.01;0.00;59042.03;10314764;28;20072;-58
2021/06/27 07:07:40;;;;;;;14.57;3.83;;;;;;;0.01;0.00;59042.03;10315521;28;20048;-59
2021/06/27 07:12:39;;;;;;;13.35;5.60;;;;;;;0.01;0.00;59042.03;10320336;28;20440;-59
2021/06/27 07:17:37;;;;;;;9.98;4.40;;;;;;;0.01;0.00;59042.03;10322175;28;20631;-58
2021/06/27 07:22:38;;;;;;;8.38;3.35;;;;;;;0.01;0.00;59042.03;10322444;28;20044;-58
2021/06/27 07:27:37;;;;;;;13.27;3.30;;;;;;;0.01;0.00;59042.03;10322273;28;20051;-58
2021/06/27 07:32:36;;;;;;;9.50;4.15;;;;;;;0.01;0.00;59042.03;10323156;28;20047;-58
2021/06/27 07:37:35;;;;;;;10.68;3.75;;;;;;;0.01;0.00;59042.03;10321931;28;20080;-58
2021/06/27 07:42:35;;;;;;;8.30;3.05;;;;;;;0.01;0.00;59042.03;10321058;28;20063;-58
2021/06/27 07:47:34;;;;;;;10.23;3.72;;;;;;;0.01;0.00;59042.03;10320908;28;20083;-58
2021/06/27 07:52:36;;;;;;;12.27;4.13;;;;;;;0.01;0.00;59042.03;10321218;28;20524;-58
2021/06/27 07:57:36;;;;;;;7.55;4.10;;;;;;;0.01;0.00;59042.03;10320726;28;20080;-58
2021/06/27 08:02:35;;;;;;;8.80;5.25;;;;;;;0.01;0.00;59042.03;10322034;28;20310;-58
2021/06/27 08:07:34;;;;;;;5.32;2.90;;;;;;;0.01;0.00;59042.03;10322240;28;20500;-58
2021/06/27 08:12:33;;;;;;;9.32;3.35;;;;;;;0.01;0.00;59042.03;10321662;28;20044;-58
2021/06/27 08:17:33;;;;;;;9.50;5.30;;;;;;;0.01;0.00;59042.03;10320871;28;20079;-58
2021/06/27 08:22:32;;;;;;;10.65;3.70;;;;;;;0.01;0.00;59042.03;10320416;28;20044;-58
2021/06/27 08:27:31;;;;;;;13.68;3.70;;;;;;;0.01;0.00;59042.03;10320158;28;20040;-59
2021/06/27 08:32:31;;;;;;;7.28;3.10;;;;;;;0.01;0.00;59042.03;10320048;28;20066;-58
2021/06/27 08:37:31;;;;;;;6.82;3.60;;;;;;;0.01;0.00;59042.03;10319592;28;20080;-58
2021/06/27 08:42:30;;;;;;;8.80;4.30;;;;;;;0.01;0.00;59042.03;10320235;28;20091;-58
2021/06/27 08:47:30;;;;;;;12.43;3.85;;;;;;;0.01;0.00;59042.03;10320493;28;20051;-58
2021/06/27 08:52:32;;;;;;;6.50;3.00;;;;;;;0.01;0.00;59042.03;10320382;28;20063;-58
2021/06/27 08:57:31;;;;;;;13.23;3.33;;;;;;;0.01;0.00;59042.03;10318560;28;20071;-58
2021/06/27 09:02:31;;;;;;;8.00;3.72;;;;;;;0.01;0.00;59042.03;10297397;28;20079;-58
2021/06/27 09:07:33;;;;;;;8.13;3.67;;;;;;;0.01;0.00;59042.03;10311689;28;20080;-58
2021/06/27 09:12:50;;;;;;;10.13;4.18;;;;;;;0.01;0.00;59042.03;10317059;28;20051;-58
2021/06/27 09:17:51;;;;;;;9.48;4.20;;;;;;;0.01;0.00;59042.03;10315711;28;20505;-58
2021/06/27 09:22:53;;;;;;;9.23;4.28;;;;;;;0.01;0.00;59042.03;10317516;28;20607;-56
2021/06/27 09:28:03;;;;;;;13.43;4.03;;;;;;;0.01;0.00;59042.03;10310030;28;20158;-58
2021/06/27 09:33:04;;;;;;;13.55;4.68;;;;;;;0.01;0.00;59042.03;10308876;28;20081;-57
2021/06/27 09:38:23;;;;;;;11.05;5.03;;;;;;;0.01;0.00;59042.03;10315393;28;20454;-58
2021/06/27 09:43:23;;;;;;;12.82;4.32;;;;;;;0.01;0.00;59042.03;10313926;28;20450;-57
2021/06/27 09:48:23;;;;;;;14.98;4.43;;;;;;;0.01;0.00;59042.03;10309942;28;20075;-57
2021/06/27 09:53:35;;;;;;;10.88;4.20;;;;;;;0.01;0.00;59042.03;10313558;28;20048;-59
2021/06/27 09:58:34;;;;;;;13.88;4.32;;;;;;;0.01;0.00;59042.03;10312012;28;20083;-58
2021/06/27 10:03:43;;;;;;;10.85;4.50;;;;;;;0.01;0.00;59042.03;10313695;28;20056;-57
2021/06/27 10:08:44;;;;;;;9.13;3.80;;;;;;;0.01;0.00;59042.03;10315833;28;20516;-58
2021/06/27 10:13:46;;;;;;;12.35;4.63;;;;;;;0.01;0.00;59042.03;10311878;28;20095;-59
2021/06/27 10:18:44;;;;;;;11.20;3.80;;;;;;;0.01;0.00;59042.03;10310216;28;20079;-58
2021/06/27 10:23:45;;;;;;;10.32;4.32;;;;;;;0.01;0.00;59042.03;10314422;28;20051;-58
2021/06/27 10:28:47;;;;;;;7.93;4.18;;;;;;;0.01;0.00;59042.03;10316022;28;20049;-58
2021/06/27 10:33:46;;;;;;;8.43;3.97;;;;;;;0.01;0.00;59042.03;10315758;28;20421;-58
2021/06/27 10:38:50;;;;;;;9.25;4.25;;;;;;;0.01;0.00;59042.03;10315099;28;20098;-58
2021/06/27 10:44:03;;;;;;;13.02;4.05;;;;;;;0.01;0.00;59042.03;10317925;28;20057;-58
2021/06/27 10:49:02;;;;;;;9.88;4.72;;;;;;;0.01;0.00;59042.03;10323268;28;20076;-58
2021/06/27 10:54:16;;;;;;;13.48;4.10;;;;;;;0.01;0.00;59042.03;10323035;28;20083;-58
2021/06/27 10:59:49;;;;;;;12.82;6.15;;;;;;;0.01;0.00;59042.03;10323727;28;20079;-58
2021/06/27 11:04:50;;;;;;;12.13;4.72;;;;;;;0.01;0.00;59042.03;10324141;28;20040;-58
2021/06/27 11:09:50;;;;;;;13.35;4.55;;;;;;;0.01;0.00;59042.03;10322902;28;20067;-54
2021/06/27 11:15:13;;;;;;;11.00;4.82;;;;;;;0.01;0.00;59042.03;10322620;28;20067;-58
2021/06/27 11:20:13;;;;;;;12.80;4.90;;;;;;;0.01;0.00;59042.03;10321957;28;20076;-58
2021/06/27 11:25:33;;;;;;;13.57;4.60;;;;;;;0.01;0.00;59042.03;10321976;28;20068;-58
2021/06/27 11:30:35;;;;;;;9.02;4.15;;;;;;;0.01;0.00;59042.03;10323106;28;20041;-58
2021/06/27 11:35:47;;;;;;;6.55;4.30;;;;;;;0.01;0.00;59042.03;10321871;28;20505;-57
2021/06/27 11:40:50;;;;;;;8.02;3.40;;;;;;;0.01;0.00;59042.03;10321915;28;20076;-58
2021/06/27 11:45:50;;;;;;;15.10;4.82;;;;;;;0.01;0.00;59042.03;10322279;28;20493;-58
2021/06/27 11:50:53;;;;;;;10.75;4.30;;;;;;;0.01;0.00;59042.03;10320998;28;20051;-58
2021/06/27 11:56:12;;;;;;;8.80;4.25;;;;;;;0.01;0.00;59042.03;10320137;28;20052;-58
2021/06/27 12:01:11;;;;;;;11.23;3.95;;;;;;;0.01;0.00;59042.03;10321061;28;20143;-59
2021/06/27 12:06:11;;;;;;;8.60;4.40;;;;;;;0.01;0.00;59042.03;10321654;28;20048;-58
2021/06/27 12:11:12;;;;;;;8.90;3.85;;;;;;;0.01;0.00;59042.03;10320334;28;20045;-59
2021/06/27 12:16:11;;;;;;;8.00;4.22;;;;;;;0.01;0.00;59042.03;10321211;28;20502;-58
2021/06/27 12:21:14;;;;;;;7.80;3.72;;;;;;;0.01;0.00;59042.03;10321616;28;20064;-58
2021/06/27 12:26:15;;;;;;;8.77;4.10;;;;;;;0.01;0.00;59042.03;10320901;28;20045;-58
2021/06/27 12:31:17;;;;;;;8.50;4.18;;;;;;;0.01;0.00;59042.03;10320863;28;20044;-59
2021/06/27 12:36:23;;;;;;;8.93;4.65;;;;;;;0.01;0.00;59042.03;10320860;28;20083;-59
2021/06/27 12:41:25;;;;;;;13.25;4.28;;;;;;;0.01;0.00;59042.03;10319480;28;20068;-59
2021/06/27 12:46:27;;;;;;;7.88;4.47;;;;;;;0.01;0.00;59042.03;10319505;28;20048;-58
2021/06/27 12:51:33;;;;;;;12.05;3.78;;;;;;;0.01;0.00;59042.03;10318819;28;20049;-58
2021/06/27 12:56:47;;;;;;;8.15;4.05;;;;;;;0.01;0.00;59042.03;10319063;28;20071;-58
2021/06/27 13:02:06;;;;;;;;;;;;;;;0.01;0.00;59042.03;10319054;28;20577;-59
2021/06/27 13:07:06;;;;;;;10.10;6.00;;;;;;;0.01;0.00;59042.03;10318753;28;19927;-58
2021/06/27 13:12:16;;;;;;;11.68;4.28;;;;;;;0.01;0.00;59042.03;10318511;28;20048;-59
2021/06/27 13:17:16;;;;;;;8.23;3.60;;;;;;;0.01;0.00;59042.03;10318772;28;20052;-58
2021/06/27 13:22:16;;;;;;;13.75;5.25;;;;;;;0.01;0.00;59042.03;10317773;28;20081;-58
2021/06/27 13:27:16;;;;;;;7.25;3.38;;;;;;;0.01;0.00;59042.03;10314198;28;20087;-56
2021/06/27 13:32:24;;;;;;;8.57;4.07;;;;;;;0.01;0.00;59042.03;10312729;28;20469;-55
2021/06/27 13:37:23;;;;;;;14.27;4.40;;;;;;;0.01;0.00;59042.03;10304468;28;20070;-58
2021/06/27 13:42:23;;;;;;;11.23;3.90;;;;;;;0.01;0.00;59042.03;10311541;28;20079;-57
2021/06/27 13:47:22;;;;;;;7.68;4.20;;;;;;;0.01;0.00;59042.03;10310151;28;20055;-54
2021/06/27 13:52:21;;;;;;;9.48;3.80;;;;;;;0.01;0.00;59042.03;10291324;28;20084;-55
2021/06/27 13:57:19;;;;;;;9.27;4.80;;;;;;;0.01;0.00;59042.03;10296807;28;20087;-57
2021/06/27 14:02:20;;;;;;;8.85;4.22;;;;;;;0.01;0.00;59042.03;10302942;28;20092;-55
2021/06/27 14:07:18;;;;;;;13.35;5.80;;;;;;;0.01;0.00;59042.03;10300153;28;20083;-57
2021/06/27 14:12:17;;;;;;;8.82;4.10;;;;;;;0.01;0.00;59042.03;10304248;28;20515;-57
2021/06/27 14:17:16;;;;;;;12.00;3.85;;;;;;;0.01;0.00;59042.03;10289407;28;20068;-58
2021/06/27 14:22:16;;;;;;;15.13;4.18;;;;;;;0.01;0.00;59042.03;10306769;28;20076;-58
2021/06/27 14:27:16;;;;;;;8.07;4.65;;;;;;;0.01;0.00;59042.03;10291060;28;20079;-58
2021/06/27 14:32:15;;;;;;;10.75;4.53;;;;;;;0.01;0.00;59042.03;10310299;28;20064;-58
2021/06/27 14:37:13;;;;;;;12.75;6.60;;;;;;;0.01;0.00;59042.03;10311701;28;20052;-58
2021/06/27 14:42:14;;;;;;;15.18;6.80;;;;;;;0.01;0.00;59042.03;10307564;28;20068;-59
2021/06/27 14:47:12;;;;;;;12.55;4.88;;;;;;;0.01;0.00;59042.03;10308150;28;20102;-58
2021/06/27 14:52:11;;;;;;;9.10;4.18;;;;;;;0.01;0.00;59042.03;10308042;28;20087;-58
2021/06/27 14:57:10;;;;;;;11.98;3.60;;;;;;;0.01;0.00;59042.03;10313394;28;20075;-58
2021/06/27 15:02:10;;;;;;;14.48;3.92;;;;;;;0.01;0.00;59042.03;10313888;28;20072;-58
2021/06/27 15:07:09;;;;;;;9.60;4.60;;;;;;;0.01;0.00;59042.03;10314112;28;20505;-58
2021/06/27 15:12:09;;;;;;;11.40;3.88;;;;;;;0.01;0.00;59042.03;10314654;28;20509;-58
2021/06/27 15:17:08;;;;;;;12.25;5.80;;;;;;;0.01;0.00;59042.03;10314452;28;20139;-58
2021/06/27 15:22:08;;;;;;;12.48;4.85;;;;;;;0.01;0.00;59042.03;10314393;28;20091;-58
2021/06/27 15:27:07;;;;;;;7.90;3.78;;;;;;;0.01;0.00;59042.03;10315164;28;20357;-58
2021/06/27 15:32:07;;;;;;;13.05;7.97;;;;;;;0.01;0.00;59042.03;10316811;28;20040;-59
2021/06/27 15:37:06;;;;;;;9.60;4.93;;;;;;;0.01;0.00;59042.03;10303342;28;20044;-58
2021/06/27 15:42:09;;;;;;;9.85;4.00;;;;;;;0.01;0.00;59042.03;10303861;28;20862;-58
2021/06/27 15:47:08;;;;;;;16.45;4.80;;;;;;;0.01;0.00;59042.03;10320177;28;20052;-58
2021/06/27 15:52:07;;;;;;;8.98;4.80;;;;;;;0.01;0.00;59042.03;10320806;28;20131;-58
2021/06/27 15:57:06;;;;;;;8.55;4.15;;;;;;;0.01;0.00;59042.03;10320676;28;20232;-58
2021/06/27 16:02:08;;;;;;;7.05;4.70;;;;;;;0.01;0.00;59042.03;10321233;28;20075;-58
2021/06/27 16:07:06;;;;;;;8.77;4.05;;;;;;;0.01;0.00;59042.03;10319473;28;20068;-58
2021/06/27 16:12:05;;;;;;;14.63;4.03;;;;;;;0.01;0.00;59042.03;10321522;28;20410;-59
2021/06/27 16:17:06;;;;;;;6.30;3.40;;;;;;;0.01;0.00;59042.03;10320262;28;20045;-58
2021/06/27 16:22:05;;;;;;;15.77;4.15;;;;;;;0.01;0.00;59042.03;10320787;28;20497;-58
2021/06/27 16:27:05;;;;;;;11.35;4.68;;;;;;;0.01;0.00;59042.03;10320617;28;20044;-58
2021/06/27 16:32:06;;;;;;;8.13;4.53;;;;;;;0.01;0.00;59042.03;10320604;28;20495;-58
2021/06/27 16:37:06;;;;;;;8.73;3.45;;;;;;;0.01;0.00;59042.03;10320178;28;20478;-58
2021/06/27 16:42:07;;;;;;;10.77;4.85;;;;;;;0.01;0.00;59042.03;10319761;28;20477;-59
2021/06/27 16:47:07;;;;;;;9.15;4.18;;;;;;;0.01;0.00;59042.03;10319593;28;20064;-59
2021/06/27 16:52:08;;;;;;;10.73;4.70;;;;;;;0.01;0.00;59042.03;10320741;28;20047;-58
2021/06/27 16:57:07;;;;;;;9.23;5.50;;;;;;;0.01;0.00;59042.03;10319321;28;20036;-58
2021/06/27 17:02:08;;;;;;;12.15;5.82;;;;;;;0.01;0.00;59042.03;10320310;28;20129;-58
2021/06/27 17:07:22;;;;;;;8.10;5.63;;;;;;;0.01;0.00;59042.03;10319391;28;20401;-58
2021/06/27 17:12:21;;;;;;;13.63;6.25;;;;;;;0.01;0.00;59042.03;10317903;28;20055;-58
2021/06/27 17:17:22;;;;;;;9.45;7.38;;;;;;;0.01;0.00;59042.03;10318915;28;20044;-58
2021/06/27 17:22:20;;;;;;;14.43;10.15;;;;;;;0.01;0.00;59042.03;10319144;28;20045;-58
2021/06/27 17:27:19;;;;;;;10.10;7.50;;;;;;;0.01;0.00;59042.03;10319058;28;20048;-58
2021/06/27 17:32:18;;;;;;;13.45;6.57;;;;;;;0.01;0.00;59042.03;10319400;28;20044;-57
2021/06/27 17:37:18;;;;;;;13.35;7.38;;;;;;;0.01;0.00;59042.03;10317890;28;20083;-57
2021/06/27 17:42:17;;;;;;;14.18;5.93;;;;;;;0.01;0.00;59042.03;10317339;28;20122;-61
2021/06/27 17:47:16;;;;;;;7.82;4.57;;;;;;;0.01;0.00;59042.03;10318337;28;20037;-60
2021/06/27 17:52:16;;;;;;;10.18;4.40;;;;;;;0.01;0.00;59042.03;10317719;28;20037;-61
2021/06/27 17:57:16;;;;;;;6.35;5.15;;;;;;;0.01;0.00;59042.03;10317372;28;20040;-61
2021/06/27 18:02:14;;;;;;;9.60;5.05;;;;;;;0.01;0.00;59042.03;10317036;28;20084;-61
2021/06/27 18:07:13;;;;;;;13.80;5.78;;;;;;;0.01;0.00;59042.03;10317973;28;20494;-61
2021/06/27 18:12:12;;;;;;;9.35;5.88;;;;;;;0.01;0.00;59042.03;10317507;28;20135;-61
2021/06/27 18:17:13;;;;;;;6.82;4.43;;;;;;;0.01;0.00;59042.03;10316645;28;20493;-61
2021/06/27 18:22:12;;;;;;;13.00;5.85;;;;;;;0.01;0.00;59042.03;10317121;28;20044;-61
2021/06/27 18:27:10;;;;;;;14.70;5.55;;;;;;;0.01;0.00;59042.03;10316817;28;20045;-61
2021/06/27 18:32:10;;;;;;;12.65;5.88;;;;;;;0.01;0.00;59042.03;10311450;28;20509;-62
2021/06/27 18:37:10;;;;;;;11.35;5.20;;;;;;;0.01;0.00;59042.03;10303282;28;20080;-59
2021/06/27 18:42:09;;;;;;;11.82;5.70;;;;;;;0.01;0.00;59042.03;10314401;28;20140;-62
2021/06/27 18:47:08;;;;;;;16.55;6.32;;;;;;;0.01;0.00;59042.03;10317120;28;20090;-62
2021/06/27 18:52:08;;;;;;;12.40;5.68;;;;;;;0.01;0.00;59042.03;10310488;28;20064;-60
2021/06/27 18:57:09;;;;;;;14.02;5.65;;;;;;;0.01;0.00;59042.03;10293563;28;20048;-61
2021/06/27 19:02:08;;;;;;;8.18;5.30;;;;;;;0.01;0.00;59042.03;10316104;28;20056;-61
2021/06/27 19:07:07;;;;;;;9.07;6.05;;;;;;;0.01;0.00;59042.03;10321007;28;20048;-60
2021/06/27 19:12:06;;;;;;;10.05;5.97;;;;;;;0.01;0.00;59042.03;10323960;28;20052;-59
2021/06/27 19:17:06;;;;;;;16.05;8.80;;;;;;;0.01;0.00;59042.03;10322319;28;20045;-60
2021/06/27 19:22:06;;;;;;;13.23;6.45;;;;;;;0.01;0.00;59042.03;10314855;28;20135;-59
2021/06/27 19:27:06;;;;;;;16.58;6.72;;;;;;;0.01;0.00;59042.03;10319631;28;20103;-59
2021/06/27 19:32:06;;;;;;;15.57;7.88;;;;;;;0.01;0.00;59042.03;10319007;28;20084;-59
2021/06/27 19:37:06;;;;;;;9.60;6.00;;;;;;;0.01;0.00;59042.03;10318852;28;20090;-59
2021/06/27 19:42:06;;;;;;;10.13;5.55;;;;;;;0.01;0.00;59042.03;10317454;28;20090;-60
2021/06/27 19:47:06;;;;;;;14.52;5.97;;;;;;;0.01;0.00;59042.03;10321719;28;20067;-60
2021/06/27 19:52:06;;;;;;;10.70;5.78;;;;;;;0.01;0.00;59042.03;10322661;28;20071;-60
2021/06/27 19:57:07;;;;;;;7.65;5.00;;;;;;;0.01;0.00;59042.03;10321612;28;20490;-60
2021/06/27 20:02:07;;;;;;;7.43;5.38;;;;;;;0.01;0.00;59042.03;10320243;28;20076;-61
2021/06/27 20:07:07;;;;;;;9.00;4.90;;;;;;;0.01;0.00;59042.03;10321809;28;20044;-60
2021/06/27 20:12:09;;;;;;;6.65;5.32;;;;;;;0.01;0.00;59042.03;10321009;28;20072;-59
2021/06/27 20:17:09;;;;;;;6.88;5.38;;;;;;;0.01;0.00;59042.03;10320733;28;20378;-60
2021/06/27 20:22:08;;;;;;;11.88;4.53;;;;;;;0.01;0.00;59042.03;10319955;28;20072;-59
2021/06/27 20:27:07;;;;;;;9.57;5.40;;;;;;;0.01;0.00;59042.03;10320941;28;20040;-60
2021/06/27 20:32:06;;;;;;;6.90;4.30;;;;;;;0.01;0.00;59042.03;10320843;28;20036;-60
2021/06/27 20:37:06;;;;;;;6.97;4.47;;;;;;;0.01;0.00;59042.03;10319902;28;20044;-61
2021/06/27 20:42:05;;;;;;;6.90;5.10;;;;;;;0.01;0.00;59042.03;10301748;28;20517;-61
2021/06/27 20:47:04;;;;;;;5.38;4.40;;;;;;;0.01;0.00;59042.03;10318727;28;20051;-61
2021/06/27 20:52:03;;;;;;;9.32;4.70;;;;;;;0.01;0.00;59042.03;10319588;28;20485;-61
2021/06/27 20:57:04;;;;;;;6.57;4.05;;;;;;;0.01;0.00;59042.03;10319264;28;20052;-61
2021/06/27 21:02:03;;;;;;;9.82;4.28;;;;;;;0.01;0.00;59042.03;10319081;28;20087;-61
2021/06/27 21:07:02;;;;;;;6.53;4.80;;;;;;;0.01;0.00;59042.03;10319826;28;20067;-61
2021/06/27 21:12:03;;;;;;;12.77;5.80;;;;;;;0.01;0.00;59042.03;10319595;28;20075;-61
2021/06/27 21:17:02;;;;;;;9.75;5.55;;;;;;;0.01;0.00;59042.03;10318225;28;20051;-61
2021/06/27 21:22:00;;;;;;;9.55;5.22;;;;;;;0.01;0.00;59042.03;10319472;28;20142;-61
2021/06/27 21:26:59;;;;;;;11.90;5.65;;;;;;;0.01;0.00;59042.03;10317590;28;20426;-61
2021/06/27 21:31:59;;;;;;;9.73;4.80;;;;;;;0.01;0.00;59042.03;10318049;28;20505;-61
2021/06/27 21:36:58;;;;;;;9.35;5.97;;;;;;;0.01;0.00;59042.03;10318301;28;20048;-61
2021/06/27 21:41:57;;;;;;;7.50;5.22;;;;;;;0.01;0.00;59042.03;10318074;28;20048;-61
2021/06/27 21:46:56;;;;;;;6.72;4.97;;;;;;;0.01;0.00;59042.03;10317569;28;20059;-61
2021/06/27 21:51:56;;;;;;;7.10;5.45;;;;;;;0.01;0.00;59042.03;10318147;28;20494;-61
2021/06/27 21:56:55;;;;;;;10.50;5.80;;;;;;;0.01;0.00;59042.03;10317403;28;20059;-61
2021/06/27 22:01:53;;;;;;;5.97;5.07;;;;;;;0.01;0.00;59042.03;10317840;28;20090;-60
2021/06/27 22:06:52;;;;;;;8.90;5.65;;;;;;;0.01;0.00;59042.03;10317743;28;20078;-61
2021/06/27 22:11:52;;;;;;;8.57;6.43;;;;;;;0.01;0.00;59042.03;10317293;28;20052;-61
2021/06/27 22:16:51;;;;;;;9.75;5.80;;;;;;;0.01;0.00;59042.03;10317350;28;20536;-61
2021/06/27 22:21:50;;;;;;;11.00;6.38;;;;;;;0.01;0.00;59042.03;10316131;28;20040;-61
2021/06/27 22:26:49;;;;;;;13.70;6.88;;;;;;;0.01;0.00;59042.03;10316963;28;20056;-61
2021/06/27 22:31:49;;;;;;;8.13;6.03;;;;;;;0.01;0.00;59042.03;10298021;28;20417;-61
2021/06/27 22:36:48;;;;;;;7.85;6.03;;;;;;;0.01;0.00;59042.03;10316367;28;20052;-61
2021/06/27 22:41:47;;;;;;;9.82;6.40;;;;;;;0.01;0.00;59042.03;10316564;28;20041;-61
2021/06/27 22:46:46;;;;;;;10.20;6.55;;;;;;;0.01;0.00;59042.03;10316620;28;20076;-61
2021/06/27 22:51:48;;;;;;;12.00;7.13;;;;;;;0.01;0.00;59042.03;10316834;28;20040;-61
2021/06/27 22:56:47;;;;;;;15.45;6.10;;;;;;;0.01;0.00;59042.03;10315998;28;20047;-61
2021/06/27 23:01:46;;;;;;;7.63;6.55;;;;;;;0.01;0.00;59042.03;10315735;28;20486;-61
2021/06/27 23:06:44;;;;;;;9.15;6.55;;;;;;;0.01;0.00;59042.03;10316201;28;20072;-61
2021/06/27 23:11:45;;;;;;;13.13;6.90;;;;;;;0.01;0.00;59042.03;10314291;28;20075;-61
2021/06/27 23:16:44;;;;;;;14.20;6.93;;;;;;;0.01;0.00;59042.03;10316292;28;20051;-61
2021/06/27 23:21:43;;;;;;;11.40;7.05;;;;;;;0.01;0.00;59042.03;10316057;28;20050;-62
2021/06/27 23:26:44;;;;;;;12.02;6.25;;;;;;;0.01;0.00;59042.03;10314418;28;20080;-61
2021/06/27 23:31:43;;;;;;;12.70;7.10;;;;;;;0.01;0.00;59042.03;10315142;28;20497;-61
2021/06/27 23:36:42;;;;;;;8.88;7.63;;;;;;;0.01;0.00;59042.03;10315398;28;20076;-61
2021/06/27 23:41:41;;;;;;;9.13;6.55;;;;;;;0.01;0.00;59042.03;10315065;28;20076;-61